createdAt,value
2018-08-16T00:01:58.213Z,3.30
2018-08-16T00:07:01.476Z,2.50
2018-08-16T00:12:04.755Z,2.50
2018-08-16T00:17:08.864Z,3.33
2018-08-16T00:22:12.116Z,2.40
2018-08-16T00:27:15.383Z,2.33
2018-08-16T00:32:18.659Z,2.63
2018-08-16T00:37:21.928Z,3.50
2018-08-16T00:42:25.180Z,3.03
2018-08-16T00:47:28.461Z,2.50
2018-08-16T00:52:31.731Z,2.57
2018-08-16T00:57:35.148Z,3.47
2018-08-16T01:02:38.443Z,3.00
2018-08-16T01:07:41.632Z,2.67
2018-08-16T01:12:44.968Z,3.70
2018-08-16T01:17:48.172Z,2.90
2018-08-16T01:22:51.448Z,5.10
2018-08-16T01:27:54.655Z,2.80
2018-08-16T01:32:57.877Z,3.30
2018-08-16T01:38:01.135Z,6.97
2018-08-16T01:43:04.376Z,3.50
2018-08-16T01:48:07.716Z,3.90
2018-08-16T01:53:11.072Z,3.50
2018-08-16T01:58:14.417Z,2.77
2018-08-16T02:03:17.672Z,3.27
2018-08-16T02:08:20.884Z,3.40
2018-08-16T02:13:24.189Z,3.43
2018-08-16T02:18:27.408Z,4.80
2018-08-16T02:23:30.616Z,3.87
2018-08-16T02:28:33.908Z,3.30
2018-08-16T02:33:37.255Z,3.03
2018-08-16T02:38:40.431Z,3.23
2018-08-16T02:43:43.692Z,4.33
2018-08-16T02:48:46.943Z,3.07
2018-08-16T02:53:50.203Z,3.63
2018-08-16T02:58:53.435Z,3.30
2018-08-16T03:03:56.748Z,2.87
2018-08-16T03:08:59.989Z,3.20
2018-08-16T03:14:03.221Z,4.30
2018-08-16T03:19:06.483Z,3.10
2018-08-16T03:24:09.698Z,3.43
2018-08-16T03:29:12.995Z,3.40
2018-08-16T03:34:16.308Z,3.00
2018-08-16T03:39:19.520Z,4.03
2018-08-16T03:44:22.844Z,3.87
2018-08-16T03:49:26.059Z,3.80
2018-08-16T03:54:29.271Z,3.60
2018-08-16T03:59:32.592Z,4.27
2018-08-16T04:04:35.820Z,3.57
2018-08-16T04:09:39.059Z,3.70
2018-08-16T04:14:42.303Z,3.20
2018-08-16T04:19:45.696Z,4.20
2018-08-16T04:24:48.946Z,3.43
2018-08-16T04:29:52.181Z,3.47
2018-08-16T04:34:55.476Z,3.20
2018-08-16T04:39:58.720Z,3.70
2018-08-16T04:45:01.945Z,3.33
2018-08-16T04:50:07.485Z,3.40
2018-08-16T04:55:10.743Z,5.50
2018-08-16T05:00:14.004Z,3.43
2018-08-16T05:05:17.215Z,3.50
2018-08-16T05:10:20.431Z,4.10
2018-08-16T05:15:23.652Z,3.80
2018-08-16T05:20:26.863Z,3.47
2018-08-16T05:25:30.068Z,3.40
2018-08-16T05:30:33.299Z,3.30
2018-08-16T05:35:36.644Z,4.63
2018-08-16T05:40:39.914Z,4.00
2018-08-16T05:45:43.338Z,3.43
2018-08-16T05:50:46.715Z,3.90
2018-08-16T05:55:50.520Z,4.10
2018-08-16T06:00:53.772Z,5.10
2018-08-16T06:11:22.836Z,9.37
2018-08-16T06:16:26.060Z,3.83
2018-08-16T06:21:29.300Z,4.00
2018-08-16T06:26:32.668Z,10.30
2018-08-16T06:31:35.943Z,4.33
2018-08-16T06:36:39.139Z,3.90
2018-08-16T06:41:42.375Z,4.23
2018-08-16T06:46:45.607Z,2.97
2018-08-16T06:51:48.943Z,3.43
2018-08-16T06:56:52.183Z,3.87
2018-08-16T07:01:55.535Z,4.07
2018-08-16T07:06:58.760Z,4.20
2018-08-16T07:12:02.034Z,4.90
2018-08-16T07:17:05.268Z,3.90
2018-08-16T07:22:08.751Z,4.50
2018-08-16T07:27:12.071Z,4.50
2018-08-16T07:32:15.296Z,5.73
2018-08-16T07:37:18.558Z,6.07
2018-08-16T07:42:21.791Z,5.70
2018-08-16T07:47:25.044Z,3.90
2018-08-16T07:52:28.315Z,4.30
2018-08-16T07:57:31.610Z,5.13
2018-08-16T08:02:34.839Z,3.00
2018-08-16T08:07:38.062Z,3.43
2018-08-16T08:12:41.359Z,5.77
2018-08-16T08:17:44.581Z,4.20
2018-08-16T08:22:47.884Z,3.40
2018-08-16T08:27:51.141Z,6.00
2018-08-16T08:32:54.366Z,4.20
2018-08-16T08:38:18.191Z,7.70
2018-08-16T08:43:32.829Z,6.70
2018-08-16T08:48:36.044Z,8.97
2018-08-16T08:55:49.842Z,3.97
2018-08-16T09:00:53.108Z,6.20
2018-08-16T09:05:56.352Z,6.30
2018-08-16T09:11:13.030Z,7.80
2018-08-16T09:16:24.112Z,3.90
2018-08-16T09:21:28.055Z,5.77
2018-08-16T09:26:36.544Z,5.73
2018-08-16T09:31:51.232Z,4.90
2018-08-16T09:36:54.476Z,3.77
2018-08-16T09:41:57.695Z,4.80
2018-08-16T09:47:13.270Z,3.60
2018-08-16T09:52:16.888Z,6.47
2018-08-16T09:57:20.192Z,4.83
2018-08-16T10:02:23.429Z,11.30
2018-08-16T10:07:26.640Z,7.73
2018-08-16T10:12:29.928Z,3.80
2018-08-16T10:17:33.127Z,4.03
2018-08-16T10:22:36.335Z,5.43
2018-08-16T10:27:39.719Z,4.30
2018-08-16T10:32:42.927Z,4.67
2018-08-16T10:37:46.136Z,4.37
2018-08-16T10:42:49.380Z,3.60
2018-08-16T10:47:52.597Z,3.03
2018-08-16T10:52:55.849Z,3.03
2018-08-16T10:57:59.121Z,3.23
2018-08-16T11:03:02.336Z,3.00
2018-08-16T11:08:05.948Z,3.40
2018-08-16T11:13:09.168Z,2.73
2018-08-16T11:18:12.383Z,3.10
2018-08-16T11:23:15.643Z,3.37
2018-08-16T11:28:18.861Z,8.17
2018-08-16T11:33:22.094Z,3.80
2018-08-16T11:38:25.303Z,5.33
2018-08-16T11:43:28.593Z,3.53
2018-08-16T11:48:32.059Z,3.40
2018-08-16T11:53:35.276Z,3.33
2018-08-16T11:58:38.513Z,3.37
2018-08-16T12:03:41.725Z,3.33
2018-08-16T12:08:44.996Z,3.70
2018-08-16T12:13:48.215Z,2.80
2018-08-16T12:18:51.440Z,3.10
2018-08-16T12:23:54.696Z,2.97
2018-08-16T12:28:57.946Z,2.90
2018-08-16T12:34:01.131Z,5.33
2018-08-16T12:39:05.592Z,2.67
2018-08-16T12:44:08.813Z,3.20
2018-08-16T12:49:12.033Z,3.07
2018-08-16T12:54:15.280Z,11.10
2018-08-16T12:59:18.550Z,9.50
2018-08-16T13:04:21.791Z,17.33
2018-08-16T13:09:25.036Z,9.80
2018-08-16T13:14:28.300Z,8.07
2018-08-16T13:19:31.523Z,6.00
2018-08-16T13:24:34.747Z,4.23
2018-08-16T13:29:37.952Z,9.53
2018-08-16T13:34:41.175Z,6.77
2018-08-16T13:39:44.410Z,6.03
2018-08-16T13:44:47.629Z,6.27
2018-08-16T13:49:50.852Z,6.73
2018-08-16T13:54:54.083Z,3.93
2018-08-16T13:59:57.320Z,3.63
2018-08-16T14:05:00.568Z,4.00
2018-08-16T14:10:03.815Z,4.07
2018-08-16T14:15:07.963Z,4.80
2018-08-16T14:20:11.211Z,4.30
2018-08-16T14:25:14.426Z,6.27
2018-08-16T14:30:17.651Z,4.67
2018-08-16T14:35:20.867Z,4.17
2018-08-16T14:40:24.561Z,5.20
2018-08-16T14:45:27.787Z,5.60
2018-08-16T14:50:31.015Z,11.17
2018-08-16T14:55:34.344Z,6.10
2018-08-16T15:00:37.785Z,9.50
2018-08-16T15:05:41.115Z,9.83
2018-08-16T15:10:44.640Z,12.20
2018-08-16T15:15:48.575Z,6.50
2018-08-16T15:20:51.875Z,7.87
2018-08-16T15:25:55.119Z,5.57
2018-08-16T15:30:58.372Z,5.93
2018-08-16T15:36:01.631Z,5.90
2018-08-16T15:41:04.882Z,6.13
2018-08-16T15:46:08.127Z,7.40
2018-08-16T15:51:11.359Z,6.00
2018-08-16T15:56:14.602Z,5.77
2018-08-16T16:01:18.076Z,5.37
2018-08-16T16:06:21.484Z,5.77
2018-08-16T16:11:24.655Z,10.13
2018-08-16T16:16:27.861Z,9.30
2018-08-16T16:21:31.099Z,7.30
2018-08-16T16:26:35.171Z,9.60
2018-08-16T16:31:38.402Z,12.87
2018-08-16T16:36:41.650Z,6.33
2018-08-16T16:41:44.871Z,8.47
2018-08-16T16:46:48.120Z,6.53
2018-08-16T16:51:52.120Z,7.03
2018-08-16T16:56:55.332Z,7.10
2018-08-16T17:01:58.555Z,6.40
2018-08-16T17:07:01.768Z,6.63
2018-08-16T17:12:04.984Z,7.60
2018-08-16T17:17:08.582Z,7.53
2018-08-16T17:22:11.811Z,7.43
2018-08-16T17:27:15.032Z,7.80
2018-08-16T17:32:18.256Z,12.43
2018-08-16T17:37:22.223Z,7.50
2018-08-16T17:42:25.470Z,10.90
2018-08-16T17:47:29.302Z,7.07
2018-08-16T17:52:32.611Z,8.00
2018-08-16T17:57:35.831Z,6.43
2018-08-16T18:02:40.207Z,7.20
2018-08-16T18:07:43.435Z,6.80
2018-08-16T18:12:46.659Z,7.13
2018-08-16T18:17:49.902Z,6.47
2018-08-16T18:22:53.123Z,10.33
2018-08-16T18:27:56.453Z,6.83
2018-08-16T18:32:59.668Z,7.53
2018-08-16T18:38:02.880Z,7.60
2018-08-16T18:43:06.250Z,9.13
2018-08-16T18:48:09.559Z,7.57
2018-08-16T18:53:12.767Z,9.80
2018-08-16T18:58:16.049Z,9.93
2018-08-16T19:03:19.274Z,9.57
2018-08-16T19:08:22.508Z,13.77
2018-08-16T19:13:25.993Z,8.23
2018-08-16T19:18:29.247Z,7.73
2018-08-16T19:23:32.480Z,7.70
2018-08-16T19:28:35.823Z,9.27
2018-08-16T19:33:39.035Z,8.50
2018-08-16T19:38:42.451Z,6.80
2018-08-16T19:43:45.695Z,6.90
2018-08-16T19:48:48.947Z,7.90
2018-08-16T19:53:52.176Z,12.03
2018-08-16T19:58:55.468Z,7.80
2018-08-16T20:03:58.704Z,7.90
2018-08-16T20:09:01.957Z,13.73
2018-08-16T20:14:05.185Z,8.27
2018-08-16T20:19:08.411Z,7.80
2018-08-16T20:24:11.733Z,8.40
2018-08-16T20:29:14.900Z,7.57
2018-08-16T20:34:18.111Z,9.97
2018-08-16T20:39:21.400Z,8.63
2018-08-16T20:44:24.661Z,10.17
2018-08-16T20:49:27.890Z,9.20
2018-08-16T20:54:31.128Z,11.60
2018-08-16T20:59:34.363Z,8.80
2018-08-16T21:04:37.607Z,8.20
2018-08-16T21:09:40.860Z,8.10
2018-08-16T21:14:44.087Z,7.23
2018-08-16T21:19:47.358Z,8.97
2018-08-16T21:24:50.575Z,8.67
2018-08-16T21:29:53.799Z,7.47
2018-08-16T21:34:57.008Z,8.97
2018-08-16T21:40:00.268Z,9.63
2018-08-16T21:45:03.527Z,9.20
2018-08-16T21:50:07.318Z,9.20
2018-08-16T21:55:10.540Z,8.50
2018-08-16T22:00:25.804Z,8.17
2018-08-16T22:06:09.556Z,9.97
2018-08-16T22:11:12.799Z,8.00
2018-08-16T22:16:22.747Z,9.07
2018-08-16T22:21:25.965Z,8.10
2018-08-16T22:26:29.191Z,9.77
2018-08-16T22:31:32.457Z,8.00
2018-08-16T22:36:35.741Z,11.27
2018-08-16T22:41:39.049Z,10.03
2018-08-16T22:46:42.308Z,8.37
2018-08-16T22:51:45.585Z,8.70
2018-08-16T22:56:48.838Z,8.93
2018-08-16T23:01:52.071Z,10.80
2018-08-16T23:06:55.299Z,8.43
2018-08-16T23:11:58.568Z,9.50
2018-08-16T23:17:01.826Z,8.53
2018-08-16T23:22:05.080Z,9.07
2018-08-16T23:27:08.710Z,9.73
2018-08-16T23:32:11.963Z,8.33
2018-08-16T23:37:15.211Z,9.27
2018-08-16T23:42:18.530Z,8.53
2018-08-16T23:52:31.963Z,8.00
2018-08-16T23:57:35.184Z,9.73
